Time;durP1;ratioP1;P1;durP2;ratioP2;P2;SDS_P1;SDS_P2;PMS_P1;PMS_P2;Temp;Humidity;BMP_temperature;BMP_pressure;BME280_temperature;BME280_humidity;BME280_pressure;Samples;Min_cycle;Max_cycle;Signal;HPM_P1;HPM_P2
2023/10/17 00:02:27;;;;;;;18.17;8.95;;;;;;;5.83;100.00;101726.94;5002602;28;20506;-67
2023/10/17 00:04:52;;;;;;;17.13;8.57;;;;;;;5.82;100.00;101727.88;4998250;28;20042;-67
2023/10/17 00:07:20;;;;;;;15.13;8.95;;;;;;;5.81;100.00;101734.78;4998139;28;20403;-66
2023/10/17 00:09:48;;;;;;;12.73;7.80;;;;;;;5.80;100.00;101737.44;5016800;28;20072;-67
2023/10/17 00:17:19;;;;;;;16.10;8.45;;;;;;;5.79;100.00;101734.03;5000257;28;20029;-68
2023/10/17 00:19:45;;;;;;;19.50;9.15;;;;;;;5.81;100.00;101741.69;4998915;28;20603;-67
2023/10/17 00:22:16;;;;;;;16.23;8.30;;;;;;;5.80;100.00;101747.72;5002054;28;20391;-67
2023/10/17 00:24:46;;;;;;;16.20;8.20;;;;;;;5.79;100.00;101739.19;5000341;28;20499;-67
2023/10/17 00:27:11;;;;;;;16.45;8.35;;;;;;;5.76;100.00;101736.81;5002939;28;20088;-67
2023/10/17 00:29:37;;;;;;;18.75;8.75;;;;;;;5.75;100.00;101731.78;5000840;28;20539;-67
2023/10/17 00:32:02;;;;;;;16.73;8.90;;;;;;;5.72;100.00;101730.22;5000984;28;20038;-67
2023/10/17 00:34:28;;;;;;;14.23;8.23;;;;;;;5.70;100.00;101729.50;5001850;28;20078;-67
2023/10/17 00:37:11;;;;;;;17.98;8.68;;;;;;;5.66;100.00;101716.03;4982192;28;20054;-67
2023/10/17 00:39:38;;;;;;;18.85;8.57;;;;;;;5.59;100.00;101716.53;4995510;28;20129;-67
2023/10/17 00:44:36;;;;;;;15.80;8.38;;;;;;;5.49;100.00;101720.63;5000628;28;20061;-67
2023/10/17 00:47:03;;;;;;;17.65;8.15;;;;;;;5.47;100.00;101723.31;4979228;28;20055;-67
2023/10/17 00:49:33;;;;;;;16.13;8.20;;;;;;;5.46;100.00;101714.78;4998707;28;20038;-67
2023/10/17 00:52:03;;;;;;;13.57;8.07;;;;;;;5.45;100.00;101704.56;5016070;28;20040;-67
2023/10/17 00:54:31;;;;;;;18.30;8.50;;;;;;;5.43;100.00;101703.84;4998123;28;20030;-67
2023/10/17 00:57:00;;;;;;;14.68;7.85;;;;;;;5.37;100.00;101702.50;4996365;28;20029;-67
2023/10/17 00:59:32;;;;;;;13.57;7.50;;;;;;;5.34;100.00;101701.88;4999039;28;21259;-66
2023/10/17 01:02:06;;;;;;;19.55;8.93;;;;;;;5.35;100.00;101706.09;4998825;28;20042;-67
2023/10/17 01:04:33;;;;;;;14.70;7.90;;;;;;;5.33;100.00;101706.22;4997328;28;20044;-67
2023/10/17 01:07:05;;;;;;;14.20;8.43;;;;;;;5.33;100.00;101705.38;4991599;28;20504;-67
2023/10/17 01:09:34;;;;;;;15.68;7.85;;;;;;;5.34;100.00;101696.75;4994228;28;20968;-67
2023/10/17 01:12:10;;;;;;;14.95;7.82;;;;;;;5.31;100.00;101700.31;4987489;28;20033;-67
2023/10/17 01:14:40;;;;;;;14.73;7.70;;;;;;;5.28;100.00;101710.00;4999012;28;20440;-67
2023/10/17 01:17:12;;;;;;;14.68;8.65;;;;;;;5.28;100.00;101715.16;4997805;28;20041;-67
2023/10/17 01:19:38;;;;;;;16.70;8.05;;;;;;;5.28;100.00;101712.56;4984458;28;20040;-67
2023/10/17 01:22:03;;;;;;;15.98;7.55;;;;;;;5.28;100.00;101705.69;4999790;28;20038;-67
2023/10/17 01:24:29;;;;;;;19.15;7.93;;;;;;;5.28;100.00;101705.69;4997214;28;20311;-67
2023/10/17 01:26:57;;;;;;;16.58;7.78;;;;;;;5.25;100.00;101705.88;4997901;28;20038;-67
2023/10/17 01:29:23;;;;;;;13.98;8.07;;;;;;;5.22;100.00;101694.03;4999606;28;20032;-67
2023/10/17 01:31:50;;;;;;;16.25;7.43;;;;;;;5.21;100.00;101694.94;4985896;28;20033;-66
2023/10/17 01:34:16;;;;;;;14.45;7.85;;;;;;;5.20;100.00;101689.94;4994405;28;20513;-67
2023/10/17 01:36:43;;;;;;;15.07;7.78;;;;;;;5.17;100.00;101688.34;4998585;28;20038;-67
2023/10/17 01:39:09;;;;;;;13.40;7.25;;;;;;;5.15;100.00;101686.81;5000483;28;20432;-67
2023/10/17 01:41:36;;;;;;;12.27;6.93;;;;;;;5.15;100.00;101691.97;5001269;28;20384;-67
2023/10/17 01:44:02;;;;;;;14.70;7.80;;;;;;;5.16;100.00;101702.16;4999822;28;20053;-67
2023/10/17 01:46:28;;;;;;;13.65;7.63;;;;;;;5.19;100.00;101704.50;5000038;28;20117;-67
2023/10/17 01:48:55;;;;;;;13.75;7.90;;;;;;;5.20;100.00;101700.22;5000952;28;20064;-67
2023/10/17 01:51:24;;;;;;;15.93;7.43;;;;;;;5.21;100.00;101702.66;4997021;28;20109;-67
2023/10/17 01:53:51;;;;;;;19.20;8.68;;;;;;;5.22;100.00;101704.31;4998460;28;20512;-67
2023/10/17 01:56:27;;;;;;;15.32;7.97;;;;;;;5.23;100.00;101695.66;4998605;28;20030;-67
2023/10/17 01:58:59;;;;;;;12.60;7.43;;;;;;;5.23;100.00;101693.09;4997857;28;20116;-67
2023/10/17 02:01:25;;;;;;;16.20;8.52;;;;;;;5.24;100.00;101694.75;4998235;28;20046;-67
2023/10/17 02:04:01;;;;;;;16.48;8.10;;;;;;;5.23;100.00;101694.84;4983706;28;20040;-67
2023/10/17 02:06:28;;;;;;;14.43;7.60;;;;;;;5.21;100.00;101694.94;4998843;28;20044;-67
2023/10/17 02:08:55;;;;;;;15.50;8.23;;;;;;;5.17;100.00;101701.22;4996992;28;20042;-67
2023/10/17 02:11:23;;;;;;;11.85;7.07;;;;;;;5.14;100.00;101701.44;4987242;28;20065;-67
2023/10/17 02:13:58;;;;;;;15.10;8.73;;;;;;;5.12;100.00;101705.81;4998923;28;20462;-67
2023/10/17 02:16:33;;;;;;;14.30;7.68;;;;;;;5.10;100.00;101697.38;5012006;28;20137;-67
2023/10/17 02:18:59;;;;;;;12.30;6.78;;;;;;;5.09;100.00;101684.66;4998261;28;20052;-67
2023/10/17 02:21:28;;;;;;;18.85;7.75;;;;;;;5.08;100.00;101686.38;4999861;28;20484;-67
2023/10/17 02:23:53;;;;;;;12.32;7.07;;;;;;;5.04;100.00;101688.31;4997478;28;20045;-67
2023/10/17 02:26:25;;;;;;;14.23;8.10;;;;;;;5.01;100.00;101685.13;5000680;28;20034;-67
2023/10/17 02:28:53;;;;;;;13.35;7.18;;;;;;;4.97;100.00;101673.38;4997717;23;20038;-67
2023/10/17 02:31:29;;;;;;;12.05;7.00;;;;;;;4.95;100.00;101675.22;4964569;28;20038;-67
2023/10/17 02:33:55;;;;;;;13.25;7.57;;;;;;;4.90;100.00;101678.09;4983682;28;20526;-67
2023/10/17 02:36:22;;;;;;;16.92;7.72;;;;;;;4.89;100.00;101671.31;4983079;28;20036;-67
2023/10/17 02:38:50;;;;;;;11.95;7.28;;;;;;;4.91;100.00;101661.75;4979084;28;20034;-67
2023/10/17 02:41:18;;;;;;;17.42;8.00;;;;;;;4.90;100.00;101664.41;4982720;28;20046;-67
2023/10/17 02:43:53;;;;;;;13.30;7.57;;;;;;;4.89;100.00;101661.03;4981653;28;20108;-67
2023/10/17 02:46:19;;;;;;;13.20;7.28;;;;;;;4.86;100.00;101654.34;4981896;28;20034;-67
2023/10/17 02:48:48;;;;;;;12.98;6.72;;;;;;;4.88;100.00;101654.25;4964873;28;20030;-67
2023/10/17 02:53:56;;;;;;;14.05;7.00;;;;;;;4.94;100.00;101653.03;4980452;28;20439;-67
2023/10/17 02:56:23;;;;;;;14.90;7.40;;;;;;;4.95;100.00;101646.97;4957158;28;20030;-67
2023/10/17 02:58:51;;;;;;;15.43;7.55;;;;;;;4.96;100.00;101651.19;4966914;28;20045;-67
2023/10/17 03:01:18;;;;;;;15.80;7.47;;;;;;;4.96;100.00;101641.72;4984139;28;20023;-67
2023/10/17 03:03:44;;;;;;;13.95;7.43;;;;;;;4.91;100.00;101643.75;4982836;28;20718;-67
2023/10/17 03:06:10;;;;;;;12.70;7.22;;;;;;;4.88;100.00;101651.69;4984511;28;20070;-67
2023/10/17 03:08:39;;;;;;;11.85;7.25;;;;;;;4.86;100.00;101656.91;4984081;28;20121;-67
2023/10/17 03:11:08;;;;;;;13.65;7.10;;;;;;;4.86;100.00;101661.25;4986071;28;20030;-67
2023/10/17 03:13:40;;;;;;;13.70;6.97;;;;;;;4.86;100.00;101663.81;4968028;28;20069;-67
2023/10/17 03:16:26;;;;;;;20.95;9.32;;;;;;;4.90;100.00;101661.84;4969649;28;20062;-67
2023/10/17 03:18:52;;;;;;;40.65;16.08;;;;;;;4.91;100.00;101661.75;4969455;28;20879;-67
2023/10/17 03:21:20;;;;;;;56.13;22.10;;;;;;;4.92;100.00;101657.47;4969439;28;20022;-67
2023/10/17 03:23:49;;;;;;;59.42;22.65;;;;;;;4.90;100.00;101647.28;4983119;28;20053;-67
2023/10/17 03:26:19;;;;;;;57.53;22.38;;;;;;;4.88;100.00;101655.06;4984853;28;20530;-67
2023/10/17 03:28:45;;;;;;;72.18;25.80;;;;;;;4.86;100.00;101662.06;4966804;28;20050;-67
2023/10/17 03:31:20;;;;;;;68.10;26.70;;;;;;;4.86;100.00;101653.53;4984969;28;20625;-67
2023/10/17 03:33:51;;;;;;;69.32;24.88;;;;;;;4.87;100.00;101650.84;4983305;28;20042;-68
2023/10/17 03:41:48;;;;;;;49.10;16.42;;;;;;;4.80;100.00;101648.75;4984953;28;20042;-67
2023/10/17 03:44:15;;;;;;;24.45;12.70;;;;;;;4.78;100.00;101648.03;4964820;28;20050;-67
2023/10/17 03:46:46;;;;;;;28.02;12.20;;;;;;;4.76;100.00;101647.31;4984860;28;20038;-67
2023/10/17 03:49:17;;;;;;;19.42;8.63;;;;;;;4.72;100.00;101646.69;4983278;28;21412;-67
2023/10/17 03:51:46;;;;;;;16.00;8.35;;;;;;;4.70;100.00;101650.28;4969178;28;20455;-67
2023/10/17 03:54:17;;;;;;;19.08;8.10;;;;;;;4.71;100.00;101664.75;4983430;28;20116;-67
2023/10/17 03:56:49;;;;;;;13.95;8.07;;;;;;;4.70;100.00;101661.38;4982805;28;20037;-67
2023/10/17 04:01:45;;;;;;;13.68;7.55;;;;;;;4.75;100.00;101666.25;4983748;28;20029;-67
2023/10/17 04:04:10;;;;;;;18.50;9.40;;;;;;;4.73;100.00;101666.31;4981131;28;20129;-67
2023/10/17 04:06:39;;;;;;;17.95;8.82;;;;;;;4.71;100.00;101668.16;4983053;28;20076;-67
2023/10/17 04:09:21;;;;;;;19.98;9.18;;;;;;;4.67;100.00;101670.09;4980742;28;20049;-67
2023/10/17 04:11:49;;;;;;;13.80;8.35;;;;;;;4.67;100.00;101667.53;4984423;28;20084;-67
2023/10/17 04:14:17;;;;;;;15.18;7.70;;;;;;;4.66;100.00;101665.06;4982199;28;20109;-67
2023/10/17 04:16:44;;;;;;;20.63;7.82;;;;;;;4.64;100.00;101669.47;4980161;28;20026;-67
2023/10/17 04:19:18;;;;;;;15.60;7.72;;;;;;;4.65;100.00;101661.66;4982252;28;20043;-67
2023/10/17 04:21:46;;;;;;;13.23;7.80;;;;;;;4.66;100.00;101662.50;4982370;28;20030;-67
2023/10/17 04:24:13;;;;;;;16.85;9.38;;;;;;;4.70;100.00;101663.94;4951087;28;20082;-67
2023/10/17 04:26:45;;;;;;;21.15;10.88;;;;;;;4.71;100.00;101655.31;4983237;28;20085;-67
2023/10/17 04:29:11;;;;;;;27.38;12.30;;;;;;;4.71;100.00;101660.47;4980527;28;20038;-67
2023/10/17 04:31:43;;;;;;;23.83;12.32;;;;;;;4.71;100.00;101651.91;4981579;28;20045;-67
2023/10/17 04:34:14;;;;;;;21.35;10.98;;;;;;;4.70;100.00;101656.22;4982895;28;20039;-67
2023/10/17 04:36:41;;;;;;;18.27;10.30;;;;;;;4.70;100.00;101655.41;4982860;28;20072;-67
2023/10/17 04:39:18;;;;;;;22.83;9.80;;;;;;;4.68;100.00;101651.19;4982945;28;20133;-67
2023/10/17 04:44:16;;;;;;;15.52;8.40;;;;;;;4.66;100.00;101640.19;4965235;28;20413;-67
2023/10/17 04:47:06;;;;;;;15.63;8.15;;;;;;;4.65;100.00;101642.84;4982207;28;20042;-67
2023/10/17 04:49:35;;;;;;;14.85;7.15;;;;;;;4.64;100.00;101647.16;4985524;28;20045;-67
2023/10/17 04:52:18;;;;;;;15.13;7.95;;;;;;;4.64;100.00;101641.22;4968793;28;20042;-67
2023/10/17 04:54:44;;;;;;;14.25;8.25;;;;;;;4.65;100.00;101642.84;4982419;28;20553;-67
2023/10/17 04:57:15;;;;;;;15.70;7.72;;;;;;;4.67;100.00;101651.28;4981069;28;20069;-67
2023/10/17 04:59:43;;;;;;;19.33;8.07;;;;;;;4.68;100.00;101633.19;4980918;28;20076;-67
2023/10/17 05:03:03;;;;;;;13.73;8.38;;;;;;;4.72;100.00;101633.84;4981295;28;20069;-67
2023/10/17 05:07:58;;;;;;;21.25;9.00;;;;;;;4.73;100.00;101640.63;4984474;28;20042;-68
2023/10/17 06:18:52;;;;;;;10.40;6.55;;;;;;;4.82;100.00;101652.06;4980320;28;20039;-67
2023/10/17 06:21:19;;;;;;;10.55;6.22;;;;;;;4.81;100.00;101653.81;4980522;28;20039;-67
2023/10/17 06:34:35;;;;;;;12.57;6.57;;;;;;;4.90;100.00;101682.41;4983352;28;20500;-67
2023/10/17 06:37:02;;;;;;;13.85;7.07;;;;;;;4.90;100.00;101678.09;4985594;28;20074;-67
2023/10/17 06:42:18;;;;;;;16.00;7.63;;;;;;;4.92;100.00;101681.41;4984290;28;20546;-67
2023/10/17 06:44:53;;;;;;;14.25;6.57;;;;;;;4.95;100.00;101672.66;4956786;28;20064;-67
2023/10/17 06:47:22;;;;;;;10.15;6.30;;;;;;;4.97;100.00;101679.38;4970168;28;20400;-68
2023/10/17 06:50:17;;;;;;;14.00;6.68;;;;;;;5.00;100.00;101676.59;4968499;28;20046;-67
2023/10/17 06:55:21;;;;;;;15.00;6.97;;;;;;;5.07;100.00;101664.19;4985482;28;20034;-67
2023/10/17 06:57:50;;;;;;;13.32;7.05;;;;;;;5.11;100.00;101667.38;4984624;28;20045;-67
2023/10/17 07:02:56;;;;;;;15.88;7.00;;;;;;;5.20;100.00;101679.63;4983827;28;20567;-67
2023/10/17 07:05:22;;;;;;;15.20;7.15;;;;;;;5.29;100.00;101673.06;4983596;28;20026;-67
2023/10/17 07:07:54;;;;;;;16.35;6.90;;;;;;;5.32;100.00;101667.72;4985686;28;20035;-67
2023/10/17 07:13:27;;;;;;;16.38;7.20;;;;;;;5.45;100.00;101673.72;4982897;28;20465;-67
2023/10/17 07:15:53;;;;;;;15.80;7.32;;;;;;;5.49;100.00;101669.19;4967669;28;20488;-67
2023/10/17 07:23:41;;;;;;;16.67;7.18;;;;;;;5.61;100.00;101668.34;4977974;28;20057;-67
2023/10/17 07:26:10;;;;;;;12.27;6.22;;;;;;;5.61;100.00;101658.91;4970072;28;20093;-67
2023/10/17 07:28:42;;;;;;;10.30;5.93;;;;;;;5.66;100.00;101661.16;4982285;28;20117;-67
2023/10/17 07:31:11;;;;;;;14.07;6.80;;;;;;;5.72;100.00;101665.88;4981926;28;20038;-67
2023/10/17 07:33:38;;;;;;;10.45;6.57;;;;;;;5.75;100.00;101667.44;4980444;28;20448;-67
2023/10/17 07:36:06;;;;;;;15.48;7.00;;;;;;;5.79;100.00;101654.25;4985634;28;20061;-67
2023/10/17 07:38:31;;;;;;;11.38;6.78;;;;;;;5.84;100.00;101664.25;4987221;28;20030;-67
2023/10/17 07:41:12;;;;;;;14.18;6.97;;;;;;;5.90;100.00;101661.25;4981707;28;20033;-67
2023/10/17 07:43:42;;;;;;;11.93;6.32;;;;;;;5.95;100.00;101666.09;4986196;28;20057;-67
2023/10/17 07:46:15;;;;;;;13.73;6.15;;;;;;;6.00;100.00;101658.91;4986009;28;20040;-67
2023/10/17 07:48:44;;;;;;;13.35;5.95;;;;;;;6.04;100.00;101656.00;4966371;28;20034;-67
2023/10/17 07:51:14;;;;;;;10.82;5.97;;;;;;;6.09;100.00;101653.13;4981875;28;20030;-67
2023/10/17 07:53:45;;;;;;;15.38;7.65;;;;;;;6.16;100.00;101646.63;4983289;28;20043;-67
2023/10/17 07:56:20;;;;;;;23.92;9.23;;;;;;;6.20;100.00;101654.97;4967115;28;20068;-67
2023/10/17 08:01:42;;;;;;;11.50;6.00;;;;;;;6.29;100.00;101643.19;4984875;28;20030;-67
2023/10/17 08:04:17;;;;;;;10.77;6.43;;;;;;;6.34;100.00;101636.78;4965879;28;20057;-67
2023/10/17 08:06:44;;;;;;;10.00;5.55;;;;;;;6.41;100.00;101642.34;4986217;28;20038;-67
2023/10/17 08:11:50;;;;;;;11.68;6.13;;;;;;;6.51;100.00;101640.75;4984995;28;20037;-67
2023/10/17 08:14:17;;;;;;;10.52;5.88;;;;;;;6.57;100.00;101648.06;4985546;28;20064;-67
2023/10/17 08:16:43;;;;;;;11.40;5.70;;;;;;;6.65;100.00;101639.78;4964197;28;20061;-67
2023/10/17 08:19:12;;;;;;;9.75;5.75;;;;;;;6.76;100.00;101645.00;4982213;28;20725;-67
2023/10/17 08:21:59;;;;;;;10.15;5.78;;;;;;;6.75;100.00;101638.16;4984369;28;20168;-67
2023/10/17 08:27:13;;;;;;;8.60;5.57;;;;;;;7.00;100.00;101637.19;4979729;28;20038;-67
2023/10/17 08:29:43;;;;;;;9.05;5.10;;;;;;;7.19;100.00;101628.94;4962705;28;20046;-67
2023/10/17 08:35:03;;;;;;;12.10;5.97;;;;;;;7.57;100.00;101638.19;4991233;28;21077;-67
2023/10/17 08:37:42;;;;;;;9.38;5.70;;;;;;;7.63;100.00;101631.72;4982255;28;20034;-68
2023/10/17 08:40:29;;;;;;;10.43;5.40;;;;;;;7.69;100.00;101638.19;4981079;28;20109;-68
2023/10/17 08:42:56;;;;;;;10.77;4.75;;;;;;;7.65;100.00;101640.16;4981262;28;20129;-67
2023/10/17 08:45:26;;;;;;;11.50;4.80;;;;;;;7.59;100.00;101646.63;4981392;28;20519;-67
2023/10/17 08:48:01;;;;;;;10.93;4.70;;;;;;;7.62;100.00;101645.56;4978476;28;20038;-67
2023/10/17 08:50:30;;;;;;;10.80;4.32;;;;;;;7.59;100.00;101651.78;4987855;28;20049;-67
2023/10/17 08:52:59;;;;;;;7.78;4.22;;;;;;;7.83;100.00;101650.84;4981144;28;20057;-67
2023/10/17 08:55:27;;;;;;;8.82;4.20;;;;;;;7.73;100.00;101648.16;4981823;28;20042;-67
2023/10/17 08:57:52;;;;;;;10.00;4.20;;;;;;;7.74;100.00;101643.78;4980475;28;20038;-67
2023/10/17 09:00:24;;;;;;;8.05;4.50;;;;;;;7.91;100.00;101647.66;4983916;28;20412;-67
2023/10/17 09:02:57;;;;;;;11.20;4.57;;;;;;;8.22;100.00;101648.72;4979780;28;20114;-67
2023/10/17 09:05:27;;;;;;;7.90;4.57;;;;;;;8.56;100.00;101648.66;4985466;28;20117;-67
2023/10/17 09:07:56;;;;;;;10.75;4.63;;;;;;;8.84;98.58;101649.88;4978362;28;20332;-67
2023/10/17 09:10:39;;;;;;;8.95;4.80;;;;;;;8.92;97.70;101644.88;4983303;28;20489;-67
2023/10/17 09:15:50;;;;;;;7.93;3.90;;;;;;;9.09;96.39;101638.34;4981164;28;20032;-67
2023/10/17 09:18:28;;;;;;;12.25;3.60;;;;;;;9.31;95.49;101632.22;4964032;28;20054;-67
2023/10/17 09:20:57;;;;;;;10.13;3.70;;;;;;;9.32;93.69;101630.44;4968980;28;20042;-67
2023/10/17 09:23:28;;;;;;;8.35;3.30;;;;;;;9.41;92.40;101636.63;4984441;28;20061;-67
2023/10/17 09:26:11;;;;;;;7.22;3.35;;;;;;;9.55;90.44;101634.53;4965540;28;20172;-67
2023/10/17 09:28:39;;;;;;;6.93;3.53;;;;;;;9.70;91.71;101623.81;4979987;28;20061;-67
2023/10/17 09:31:08;;;;;;;6.72;2.67;;;;;;;9.77;89.49;101630.13;4981994;28;20034;-67
2023/10/17 09:33:44;;;;;;;6.90;2.55;;;;;;;9.98;88.19;101624.06;4981276;28;20050;-67
2023/10/17 09:36:12;;;;;;;6.03;2.05;;;;;;;10.07;84.68;101628.44;4967473;28;20446;-67
2023/10/17 09:38:43;;;;;;;6.25;2.13;;;;;;;10.06;77.68;101626.81;4983060;28;20070;-67
2023/10/17 09:41:11;;;;;;;5.05;1.42;;;;;;;10.15;76.44;101626.00;4982555;28;20038;-67
2023/10/17 09:43:37;;;;;;;4.07;1.48;;;;;;;10.10;76.34;101629.00;4966098;28;20038;-67
2023/10/17 09:46:09;;;;;;;6.53;2.30;;;;;;;10.29;72.33;101624.81;4981933;28;20093;-67
2023/10/17 09:48:41;;;;;;;2.97;1.20;;;;;;;10.23;72.60;101612.41;4983255;28;20084;-67
2023/10/17 09:51:10;;;;;;;5.20;1.40;;;;;;;10.23;73.44;101630.56;4978867;28;20050;-66
2023/10/17 09:53:39;;;;;;;4.45;1.30;;;;;;;10.34;72.64;101625.28;4981562;28;20458;-67
2023/10/17 09:56:09;;;;;;;4.22;1.58;;;;;;;10.38;71.00;101615.44;4983531;28;20070;-67
2023/10/17 09:58:47;;;;;;;3.33;1.25;;;;;;;10.45;72.06;101617.38;4966609;28;20058;-67
2023/10/17 10:01:20;;;;;;;7.45;1.45;;;;;;;10.36;72.59;101612.16;4966451;28;20060;-67
2023/10/17 10:03:53;;;;;;;4.85;1.60;;;;;;;10.46;72.49;101613.81;4983731;28;20034;-68
2023/10/17 10:06:22;;;;;;;;;;;;;;;10.51;72.73;101621.22;4980135;28;20638;-67
2023/10/17 10:08:47;;;;;;;5.22;1.42;;;;;;;10.55;73.18;101609.59;4968463;28;20507;-68
2023/10/17 10:11:14;;;;;;;7.10;1.50;;;;;;;10.66;73.66;101608.63;4983470;28;20045;-68
2023/10/17 10:14:08;;;;;;;1.95;1.10;;;;;;;10.80;68.71;101610.81;4983492;28;20097;-67
2023/10/17 10:17:02;;;;;;;3.97;1.05;;;;;;;10.88;69.65;101612.72;4982319;28;20077;-67
2023/10/17 10:19:40;;;;;;;3.47;1.23;;;;;;;10.87;68.06;101609.31;4980746;28;20026;-68
2023/10/17 10:22:07;;;;;;;2.30;1.10;;;;;;;10.88;68.67;101615.31;4981001;28;20046;-67
2023/10/17 10:24:34;;;;;;;3.10;1.00;;;;;;;11.01;69.13;101602.88;4981076;28;20043;-68
2023/10/17 10:27:24;;;;;;;2.72;0.93;;;;;;;11.12;67.26;101603.69;4981605;28;20409;-68
2023/10/17 10:29:56;;;;;;;3.00;0.80;;;;;;;11.32;63.31;101605.28;4982359;28;20050;-67
2023/10/17 10:32:37;;;;;;;3.95;0.98;;;;;;;11.25;63.34;101597.22;4967881;28;20400;-68
2023/10/17 10:35:05;;;;;;;3.70;1.02;;;;;;;11.22;66.82;101599.28;4981845;28;20042;-67
2023/10/17 10:37:32;;;;;;;3.28;0.70;;;;;;;11.27;64.92;101604.88;4966989;28;20038;-68
2023/10/17 10:40:08;;;;;;;2.22;0.95;;;;;;;11.36;62.99;101604.03;4971289;28;20030;-67
2023/10/17 10:42:47;;;;;;;3.60;0.82;;;;;;;11.39;63.73;101598.53;4982523;28;20041;-68
2023/10/17 10:45:26;;;;;;;2.80;0.90;;;;;;;11.39;65.92;101598.53;4966871;28;20026;-68
2023/10/17 10:47:58;;;;;;;3.00;0.73;;;;;;;11.53;62.66;101596.44;4980998;28;20038;-68
2023/10/17 10:50:29;;;;;;;2.72;0.85;;;;;;;11.54;61.68;101596.31;4982689;28;20034;-67
2023/10/17 10:52:56;;;;;;;1.17;0.50;;;;;;;11.72;60.79;101590.38;4985239;28;20053;-68
2023/10/17 10:55:24;;;;;;;2.83;0.75;;;;;;;11.71;62.15;101578.34;4975700;28;20113;-67
2023/10/17 10:57:51;;;;;;;2.17;0.90;;;;;;;11.76;60.67;101569.13;4984139;28;20038;-68
2023/10/17 11:00:17;;;;;;;3.17;0.85;;;;;;;11.82;62.18;101575.53;4983838;28;20057;-67
2023/10/17 11:02:43;;;;;;;1.52;0.65;;;;;;;11.82;60.74;101576.34;4966897;28;20065;-67
2023/10/17 11:05:12;;;;;;;3.85;0.93;;;;;;;11.80;59.25;101560.09;4983658;28;20065;-68
2023/10/17 11:07:38;;;;;;;2.47;0.70;;;;;;;11.85;58.05;101560.47;4965949;28;20537;-67
2023/10/17 11:10:06;;;;;;;3.08;0.60;;;;;;;11.85;57.67;101578.66;4986756;28;20050;-67
2023/10/17 11:12:33;;;;;;;4.45;1.02;;;;;;;11.80;58.19;101559.28;4985172;28;20049;-68
2023/10/17 11:15:14;;;;;;;2.10;0.80;;;;;;;11.76;57.75;101569.13;4986587;28;20101;-67
2023/10/17 11:17:41;;;;;;;1.88;1.00;;;;;;;11.90;58.03;101557.47;4983912;28;20033;-67
2023/10/17 11:20:18;;;;;;;4.20;0.98;;;;;;;12.00;61.59;101565.22;4987539;28;20172;-67
2023/10/17 11:22:46;;;;;;;4.18;0.90;;;;;;;12.08;58.94;101560.09;4982409;28;20140;-67
2023/10/17 11:25:13;;;;;;;2.20;0.77;;;;;;;12.20;57.79;101558.09;4986511;28;20128;-68
2023/10/17 11:30:35;;;;;;;1.40;0.70;;;;;;;12.41;59.14;101544.78;4985112;28;20034;-67
2023/10/17 11:33:05;;;;;;;6.93;0.98;;;;;;;12.30;56.92;101539.81;4969926;28;20042;-67
2023/10/17 11:35:34;;;;;;;2.80;1.15;;;;;;;12.37;57.74;101539.06;4967686;28;20053;-67
2023/10/17 11:38:00;;;;;;;3.28;1.10;;;;;;;12.41;57.63;101543.03;4983704;28;20042;-67
2023/10/17 11:40:30;;;;;;;2.20;1.17;;;;;;;12.40;58.96;101525.75;4985883;28;20065;-67
2023/10/17 11:42:58;;;;;;;5.22;1.00;;;;;;;12.62;58.22;101526.25;4982872;28;20116;-67
2023/10/17 11:45:33;;;;;;;1.05;0.70;;;;;;;12.53;57.28;101520.19;4984231;28;20121;-67
2023/10/17 11:48:13;;;;;;;2.28;0.80;;;;;;;12.52;57.30;101518.53;4980544;28;20539;-67
2023/10/17 11:50:39;;;;;;;3.00;0.90;;;;;;;12.43;57.08;101515.06;4982709;28;20030;-67
2023/10/17 11:53:09;;;;;;;2.38;0.95;;;;;;;12.40;57.56;101517.97;4985191;28;20088;-67
2023/10/17 11:55:45;;;;;;;3.55;0.95;;;;;;;12.66;57.17;101518.00;4971827;28;20424;-68
2023/10/17 11:58:21;;;;;;;10.02;3.40;;;;;;;12.67;58.54;101516.19;4983320;28;20042;-67
2023/10/17 12:00:50;;;;;;;2.67;1.00;;;;;;;12.59;57.09;101506.56;4970846;28;20034;-67
2023/10/17 12:03:19;;;;;;;2.25;0.77;;;;;;;12.59;57.19;101500.56;4985350;28;20566;-67
2023/10/17 12:05:46;;;;;;;2.58;0.60;;;;;;;12.68;60.96;101502.25;4987423;28;20128;-67
2023/10/17 12:08:22;;;;;;;3.92;1.08;;;;;;;12.72;58.22;101489.75;4982744;28;20034;-67
2023/10/17 12:10:51;;;;;;;1.85;0.98;;;;;;;12.59;57.88;101480.53;4981995;28;20037;-67
2023/10/17 12:13:19;;;;;;;4.53;0.85;;;;;;;12.78;58.23;101489.13;4982653;28;20151;-67
2023/10/17 12:15:45;;;;;;;3.25;1.25;;;;;;;12.70;57.49;101484.69;4966454;28;20115;-67
2023/10/17 12:18:12;;;;;;;1.95;1.00;;;;;;;12.79;57.38;101488.13;4985255;28;20042;-67
2023/10/17 12:20:41;;;;;;;3.75;1.08;;;;;;;12.64;58.35;101493.91;4969586;28;20040;-67
2023/10/17 12:23:11;;;;;;;2.08;0.90;;;;;;;12.63;60.02;101494.88;4983542;28;20049;-67
2023/10/17 12:25:37;;;;;;;3.80;0.95;;;;;;;12.61;60.83;101485.59;4982272;28;20485;-68
2023/10/17 12:28:06;;;;;;;3.92;1.00;;;;;;;12.79;57.29;101475.13;4986284;28;20042;-68
2023/10/17 12:30:35;;;;;;;3.75;1.35;;;;;;;12.83;57.11;101471.28;4974802;28;20105;-67
2023/10/17 12:33:02;;;;;;;1.83;0.90;;;;;;;12.80;57.39;101464.56;4983430;28;20080;-68
2023/10/17 12:35:28;;;;;;;1.55;0.90;;;;;;;12.73;58.51;101453.13;4971118;28;20105;-67
2023/10/17 12:37:57;;;;;;;4.47;1.45;;;;;;;12.58;59.43;101452.06;4968911;28;20125;-68
2023/10/17 12:40:23;;;;;;;4.10;1.40;;;;;;;12.44;60.15;101448.25;4985274;28;20066;-68
2023/10/17 12:42:54;;;;;;;1.98;1.10;;;;;;;12.56;60.24;101454.81;4969284;28;20553;-67
2023/10/17 12:45:21;;;;;;;4.88;1.30;;;;;;;12.60;60.11;101455.34;4986662;28;20037;-67
2023/10/17 12:47:47;;;;;;;5.22;1.25;;;;;;;12.54;60.36;101441.16;4982242;28;20042;-68
2023/10/17 12:50:18;;;;;;;4.35;1.67;;;;;;;12.50;60.83;101445.03;4982549;28;20030;-68
2023/10/17 12:52:44;;;;;;;2.22;1.20;;;;;;;12.52;59.54;101437.09;4982906;28;20061;-67
2023/10/17 12:55:11;;;;;;;3.20;1.40;;;;;;;12.55;59.26;101442.81;4983696;28;20026;-67
2023/10/17 12:57:38;;;;;;;2.72;1.10;;;;;;;12.48;59.34;101436.56;4968458;28;20088;-68
2023/10/17 13:00:11;;;;;;;2.88;1.30;;;;;;;12.53;60.51;101431.75;4964606;28;20073;-68
2023/10/17 13:02:40;;;;;;;5.57;1.17;;;;;;;12.48;59.96;101426.16;4966487;28;20057;-68
2023/10/17 13:05:10;;;;;;;5.00;1.30;;;;;;;12.62;58.57;101419.56;4969672;28;20042;-67
2023/10/17 13:07:40;;;;;;;3.30;1.15;;;;;;;12.59;59.71;101423.31;4966846;28;20026;-68
2023/10/17 13:10:07;;;;;;;2.92;1.20;;;;;;;12.65;60.65;101430.50;4973007;28;20053;-67
2023/10/17 13:12:33;;;;;;;2.80;1.00;;;;;;;12.88;58.95;101421.34;4987165;28;20066;-68
2023/10/17 13:14:59;;;;;;;2.67;0.95;;;;;;;12.92;59.55;101425.25;4983446;28;20061;-68
2023/10/17 13:17:25;;;;;;;5.70;1.10;;;;;;;12.93;60.76;101421.69;4984946;28;20513;-68
2023/10/17 13:19:51;;;;;;;2.65;1.25;;;;;;;12.87;58.68;101420.53;4986703;28;20030;-68
2023/10/17 13:22:20;;;;;;;4.93;2.08;;;;;;;12.80;58.33;101414.31;4987566;28;20042;-68
2023/10/17 13:24:47;;;;;;;4.03;1.20;;;;;;;13.08;59.80;101409.72;4969929;28;20785;-68
2023/10/17 13:27:13;;;;;;;5.45;1.20;;;;;;;13.23;58.94;101408.13;4982751;28;20035;-68
2023/10/17 13:29:38;;;;;;;4.10;0.98;;;;;;;13.24;60.06;101403.72;4983448;28;20061;-68
2023/10/17 13:32:07;;;;;;;4.40;1.52;;;;;;;13.38;56.73;101408.38;4988987;28;20053;-68
2023/10/17 13:34:39;;;;;;;2.65;1.00;;;;;;;13.38;56.66;101403.16;4981685;28;20031;-68
2023/10/17 13:37:04;;;;;;;3.50;1.13;;;;;;;13.24;56.54;101409.78;4971147;28;20084;-68
2023/10/17 13:39:36;;;;;;;3.05;0.93;;;;;;;13.27;57.84;101400.81;4980424;28;20058;-68
2023/10/17 13:42:02;;;;;;;6.80;2.83;;;;;;;13.29;60.63;101396.25;4985373;28;20046;-68
2023/10/17 13:44:28;;;;;;;7.32;1.42;;;;;;;13.24;58.76;101393.31;4982692;28;20466;-68
2023/10/17 13:46:55;;;;;;;2.53;1.10;;;;;;;13.28;58.60;101384.22;4971427;28;20484;-69
2023/10/17 13:49:21;;;;;;;2.15;1.00;;;;;;;13.27;59.56;101376.56;4966652;28;20851;-68
2023/10/17 13:51:47;;;;;;;2.72;1.00;;;;;;;13.37;60.26;101377.25;4975671;28;20026;-67